CheckWX is a tool to help pilots better visualize weather data.  It is not intended as a substitute for an official pre-flight weather briefing.

12:25:27 UTC

KCOS TAF
City of Colorado Springs Municipal Airport
Colorado Springs, Colorado, USA
KCOS 221120Z 2212/2312 05006KT P6SM BKN100 BKN160 FM221400 16008KT P6SM SCT060 BKN160 FM221900 18012KT P6SM VCTS BKN060CB FM230000 33012KT P6SM BKN060 FM230400 34012G25KT P6SM VCSH BKN040 FM231000 33010KT P6SM SCT040 BKN120

Mar-22@
12:00 UTC

Mar-22 @ 12:00 UTC

Mar-22@
14:00 UTC

Mar-22 @ 14:00 UTC

KCOS 221120Z 2212/2312 05006KT P6SM BKN100 BKN160
Wind
  • 050° at 6 KTS
Cloud Levels
  • Broken at 10,000' AGL
  • Broken at 16,000' AGL

Mar-22@
14:00 UTC

Mar-22 @ 14:00 UTC

Mar-22@
19:00 UTC

Mar-22 @ 19:00 UTC

FM221400 16008KT P6SM SCT060 BKN160

From

From Standard forecast or significant change

Wind
  • 160° at 8 KTS
Cloud Levels
  • Scattered at 6,000' AGL
  • Broken at 16,000' AGL

Mar-22@
19:00 UTC

Mar-22 @ 19:00 UTC

Mar-23@
00:00 UTC

Mar-23 @ 00:00 UTC

FM221900 18012KT P6SM VCTS BKN060CB

From

From Standard forecast or significant change

Wind
  • 180° at 12 KTS
Conditions
Area Thunderstorm
Cloud Levels
  • Broken at 6,000' AGL

Mar-23@
00:00 UTC

Mar-23 @ 00:00 UTC

Mar-23@
04:00 UTC

Mar-23 @ 04:00 UTC

FM230000 33012KT P6SM BKN060

From

From Standard forecast or significant change

Wind
  • 330° at 12 KTS
Cloud Levels
  • Broken at 6,000' AGL

Mar-23@
04:00 UTC

Mar-23 @ 04:00 UTC

Mar-23@
10:00 UTC

Mar-23 @ 10:00 UTC

FM230400 34012G25KT P6SM VCSH BKN040

From

From Standard forecast or significant change

Wind
  • 340° at 12 KTS
  • {Gusting to 25 KTS
Cloud Levels
  • Broken at 4,000' AGL

Mar-23@
10:00 UTC

Mar-23 @ 10:00 UTC

Mar-23@
12:00 UTC

Mar-23 @ 12:00 UTC

FM231000 33010KT P6SM SCT040 BKN120

From

From Standard forecast or significant change

Wind
  • 330° at 10 KTS
Cloud Levels
  • Scattered at 4,000' AGL
  • Broken at 12,000' AGL